Glogue, United Kingdom
Current Conditions -  °F | °C
As of 11:50 PM on Wednesday 26 Nov 2014 (Local Time) from EGOP Reporting Station
Broken Clouds Broken Clouds  
Wind Chill: 33°   Ceiling: 4400
Heat Index: 37°   Visibility: 0.93mi
Dew Point: 37°   Wind: 6mph
Humidity: 100%   Direction: 30°NNE
Pressure: 29.74"   Gusts: NA
Location:  51.96°N, 4.61°W
Report Text: EGOP 262350Z AUTO 03005KT 1500 // FEW002/// BKN044/// 03/03 Q1007
Loading
Personal Weather Stations






























Interactive Weather Map New forecast layout! Learn more

10-Day Weather Forecast

Advertisements
Track Severe Weather on mobile